sensor_id;sensor_type;location;lat;lon;timestamp;pressure;altitude;pressure_sealevel;temperature;humidity
3096;BME280;1558;42.700;23.360;2023-08-08T00:00:47;95165.19;;;16.68;100.00
3096;BME280;1558;42.700;23.360;2023-08-08T00:03:15;95173.03;;;16.73;100.00
3096;BME280;1558;42.700;23.360;2023-08-08T00:05:43;95179.19;;;16.66;100.00
3096;BME280;1558;42.700;23.360;2023-08-08T00:08:11;95175.75;;;16.73;100.00
3096;BME280;1558;42.700;23.360;2023-08-08T00:10:39;95179.28;;;16.73;100.00
3096;BME280;1558;42.700;23.360;2023-08-08T00:13:09;95172.91;;;16.62;100.00
3096;BME280;1558;42.700;23.360;2023-08-08T00:15:37;95174.88;;;16.32;100.00
3096;BME280;1558;42.700;23.360;2023-08-08T00:18:05;95174.06;;;16.28;100.00
3096;BME280;1558;42.700;23.360;2023-08-08T00:20:33;95169.06;;;16.34;100.00
3096;BME280;1558;42.700;23.360;2023-08-08T00:23:01;95167.03;;;16.27;100.00
3096;BME280;1558;42.700;23.360;2023-08-08T00:25:29;95166.50;;;16.48;100.00
3096;BME280;1558;42.700;23.360;2023-08-08T00:27:57;95175.28;;;16.34;100.00
3096;BME280;1558;42.700;23.360;2023-08-08T00:30:27;95170.25;;;16.36;100.00
3096;BME280;1558;42.700;23.360;2023-08-08T00:32:55;95176.44;;;16.33;100.00
3096;BME280;1558;42.700;23.360;2023-08-08T00:35:24;95181.06;;;16.29;100.00
3096;BME280;1558;42.700;23.360;2023-08-08T00:37:52;95184.97;;;16.32;100.00
3096;BME280;1558;42.700;23.360;2023-08-08T00:40:20;95183.34;;;16.23;100.00
3096;BME280;1558;42.700;23.360;2023-08-08T00:42:48;95178.66;;;16.24;100.00
3096;BME280;1558;42.700;23.360;2023-08-08T00:45:16;95174.09;;;16.32;100.00
3096;BME280;1558;42.700;23.360;2023-08-08T00:47:46;95176.63;;;16.47;100.00
3096;BME280;1558;42.700;23.360;2023-08-08T00:50:14;95190.91;;;16.41;100.00
3096;BME280;1558;42.700;23.360;2023-08-08T00:52:43;95203.66;;;16.33;100.00
3096;BME280;1558;42.700;23.360;2023-08-08T00:55:11;95203.75;;;16.40;100.00
3096;BME280;1558;42.700;23.360;2023-08-08T00:57:41;95209.25;;;16.14;100.00
3096;BME280;1558;42.700;23.360;2023-08-08T01:00:10;95204.56;;;16.14;100.00
3096;BME280;1558;42.700;23.360;2023-08-08T01:02:38;95206.47;;;16.10;100.00
3096;BME280;1558;42.700;23.360;2023-08-08T01:05:08;95201.84;;;16.14;100.00
3096;BME280;1558;42.700;23.360;2023-08-08T01:07:42;95197.94;;;16.12;100.00
3096;BME280;1558;42.700;23.360;2023-08-08T01:10:12;95206.16;;;16.15;100.00
3096;BME280;1558;42.700;23.360;2023-08-08T01:12:45;95204.84;;;16.06;100.00
3096;BME280;1558;42.700;23.360;2023-08-08T01:15:17;95211.09;;;16.06;100.00
3096;BME280;1558;42.700;23.360;2023-08-08T01:17:46;95217.84;;;16.16;100.00
3096;BME280;1558;42.700;23.360;2023-08-08T01:20:16;95215.13;;;16.16;100.00
3096;BME280;1558;42.700;23.360;2023-08-08T01:22:50;95216.44;;;15.99;100.00
3096;BME280;1558;42.700;23.360;2023-08-08T01:25:25;95215.84;;;16.13;100.00
3096;BME280;1558;42.700;23.360;2023-08-08T01:27:53;95207.09;;;16.00;100.00
3096;BME280;1558;42.700;23.360;2023-08-08T01:30:21;95221.03;;;15.95;100.00
3096;BME280;1558;42.700;23.360;2023-08-08T01:32:49;95221.03;;;15.95;100.00
3096;BME280;1558;42.700;23.360;2023-08-08T01:35:17;95219.09;;;15.96;100.00
3096;BME280;1558;42.700;23.360;2023-08-08T01:37:49;95219.41;;;15.91;100.00
3096;BME280;1558;42.700;23.360;2023-08-08T01:40:18;95224.22;;;16.01;100.00
3096;BME280;1558;42.700;23.360;2023-08-08T01:42:48;95228.97;;;16.07;100.00
3096;BME280;1558;42.700;23.360;2023-08-08T01:45:17;95240.22;;;16.06;100.00
3096;BME280;1558;42.700;23.360;2023-08-08T01:47:49;95252.22;;;16.01;100.00
3096;BME280;1558;42.700;23.360;2023-08-08T01:50:18;95245.88;;;15.94;100.00
3096;BME280;1558;42.700;23.360;2023-08-08T01:52:47;95247.97;;;15.78;100.00
3096;BME280;1558;42.700;23.360;2023-08-08T01:55:16;95244.31;;;15.93;100.00
3096;BME280;1558;42.700;23.360;2023-08-08T01:57:44;95247.03;;;15.93;100.00
3096;BME280;1558;42.700;23.360;2023-08-08T02:00:13;95260.22;;;15.91;100.00
3096;BME280;1558;42.700;23.360;2023-08-08T02:02:42;95267.13;;;15.85;100.00
3096;BME280;1558;42.700;23.360;2023-08-08T02:05:10;95262.00;;;16.06;100.00
3096;BME280;1558;42.700;23.360;2023-08-08T02:07:38;95269.69;;;16.00;100.00
3096;BME280;1558;42.700;23.360;2023-08-08T02:10:07;95272.16;;;15.83;100.00
3096;BME280;1558;42.700;23.360;2023-08-08T02:12:35;95267.97;;;15.89;100.00
3096;BME280;1558;42.700;23.360;2023-08-08T02:15:04;95273.19;;;16.01;100.00
3096;BME280;1558;42.700;23.360;2023-08-08T02:17:35;95275.53;;;16.02;100.00
3096;BME280;1558;42.700;23.360;2023-08-08T02:20:04;95282.88;;;15.98;100.00
3096;BME280;1558;42.700;23.360;2023-08-08T02:22:33;95283.34;;;16.04;100.00
3096;BME280;1558;42.700;23.360;2023-08-08T02:25:01;95289.63;;;16.08;100.00
3096;BME280;1558;42.700;23.360;2023-08-08T02:27:29;95286.88;;;16.04;100.00
3096;BME280;1558;42.700;23.360;2023-08-08T02:29:57;95295.91;;;16.12;100.00
3096;BME280;1558;42.700;23.360;2023-08-08T02:32:25;95298.63;;;16.12;100.00
3096;BME280;1558;42.700;23.360;2023-08-08T02:34:55;95302.50;;;16.11;100.00
3096;BME280;1558;42.700;23.360;2023-08-08T02:37:23;95298.38;;;16.20;100.00
3096;BME280;1558;42.700;23.360;2023-08-08T02:39:51;95294.44;;;16.18;100.00
3096;BME280;1558;42.700;23.360;2023-08-08T02:42:21;95292.41;;;16.11;100.00
3096;BME280;1558;42.700;23.360;2023-08-08T02:44:49;95294.25;;;16.04;100.00
3096;BME280;1558;42.700;23.360;2023-08-08T02:47:17;95301.31;;;16.08;100.00
3096;BME280;1558;42.700;23.360;2023-08-08T02:49:45;95312.13;;;16.05;100.00
3096;BME280;1558;42.700;23.360;2023-08-08T02:52:15;95314.91;;;16.08;100.00
3096;BME280;1558;42.700;23.360;2023-08-08T02:54:43;95316.84;;;16.34;100.00
3096;BME280;1558;42.700;23.360;2023-08-08T02:57:11;95325.50;;;16.40;100.00
3096;BME280;1558;42.700;23.360;2023-08-08T02:59:41;95329.22;;;16.28;100.00
3096;BME280;1558;42.700;23.360;2023-08-08T03:02:10;95330.25;;;16.20;100.00
3096;BME280;1558;42.700;23.360;2023-08-08T03:04:38;95333.16;;;16.31;100.00
3096;BME280;1558;42.700;23.360;2023-08-08T03:07:07;95331.03;;;16.47;100.00
3096;BME280;1558;42.700;23.360;2023-08-08T03:09:36;95326.06;;;16.52;100.00
3096;BME280;1558;42.700;23.360;2023-08-08T03:12:05;95318.53;;;16.68;100.00
3096;BME280;1558;42.700;23.360;2023-08-08T03:14:33;95305.66;;;16.69;100.00
3096;BME280;1558;42.700;23.360;2023-08-08T03:17:02;95325.44;;;16.92;100.00
3096;BME280;1558;42.700;23.360;2023-08-08T03:19:30;95334.50;;;17.00;100.00
3096;BME280;1558;42.700;23.360;2023-08-08T03:21:58;95344.81;;;17.17;100.00
3096;BME280;1558;42.700;23.360;2023-08-08T03:24:26;95333.97;;;17.24;100.00
3096;BME280;1558;42.700;23.360;2023-08-08T03:26:56;95324.94;;;17.49;100.00
3096;BME280;1558;42.700;23.360;2023-08-08T03:29:24;95327.25;;;17.51;100.00
3096;BME280;1558;42.700;23.360;2023-08-08T03:31:52;95327.19;;;17.44;100.00
3096;BME280;1558;42.700;23.360;2023-08-08T03:34:21;95331.13;;;17.46;100.00
3096;BME280;1558;42.700;23.360;2023-08-08T03:36:49;95333.53;;;17.51;100.00
3096;BME280;1558;42.700;23.360;2023-08-08T03:39:17;95334.31;;;17.52;100.00
3096;BME280;1558;42.700;23.360;2023-08-08T03:41:45;95335.38;;;17.44;100.00
3096;BME280;1558;42.700;23.360;2023-08-08T03:44:15;95333.78;;;17.43;100.00
3096;BME280;1558;42.700;23.360;2023-08-08T03:46:43;95334.31;;;17.52;100.00
3096;BME280;1558;42.700;23.360;2023-08-08T03:49:11;95348.44;;;17.61;100.00
3096;BME280;1558;42.700;23.360;2023-08-08T03:51:39;95338.69;;;17.60;100.00
3096;BME280;1558;42.700;23.360;2023-08-08T03:54:07;95338.47;;;17.79;100.00
3096;BME280;1558;42.700;23.360;2023-08-08T03:56:35;95336.28;;;17.95;100.00
3096;BME280;1558;42.700;23.360;2023-08-08T03:59:04;95332.75;;;17.95;100.00
3096;BME280;1558;42.700;23.360;2023-08-08T04:01:34;95336.44;;;18.13;100.00
3096;BME280;1558;42.700;23.360;2023-08-08T04:04:02;95340.69;;;18.10;100.00
3096;BME280;1558;42.700;23.360;2023-08-08T04:06:30;95344.97;;;18.08;100.00
3096;BME280;1558;42.700;23.360;2023-08-08T04:08:58;95340.66;;;18.03;100.00
3096;BME280;1558;42.700;23.360;2023-08-08T04:11:27;95355.16;;;18.11;100.00
3096;BME280;1558;42.700;23.360;2023-08-08T04:13:55;95367.38;;;17.84;100.00
3096;BME280;1558;42.700;23.360;2023-08-08T04:16:23;95359.63;;;17.89;100.00
3096;BME280;1558;42.700;23.360;2023-08-08T04:18:54;95380.56;;;17.78;100.00
3096;BME280;1558;42.700;23.360;2023-08-08T04:21:22;95373.56;;;17.81;100.00
3096;BME280;1558;42.700;23.360;2023-08-08T04:23:51;95376.56;;;17.69;100.00
3096;BME280;1558;42.700;23.360;2023-08-08T04:26:19;95377.34;;;17.69;100.00
3096;BME280;1558;42.700;23.360;2023-08-08T04:28:47;95377.69;;;17.64;100.00
3096;BME280;1558;42.700;23.360;2023-08-08T04:31:15;95388.34;;;17.76;100.00
3096;BME280;1558;42.700;23.360;2023-08-08T04:33:44;95398.56;;;17.83;100.00
3096;BME280;1558;42.700;23.360;2023-08-08T04:36:14;95360.44;;;17.53;100.00
3096;BME280;1558;42.700;23.360;2023-08-08T04:38:42;95380.41;;;18.01;100.00
3096;BME280;1558;42.700;23.360;2023-08-08T04:41:10;95385.75;;;17.90;100.00
3096;BME280;1558;42.700;23.360;2023-08-08T04:43:38;95379.78;;;18.21;100.00
3096;BME280;1558;42.700;23.360;2023-08-08T04:46:06;95364.47;;;18.06;100.00
3096;BME280;1558;42.700;23.360;2023-08-08T04:48:34;95379.66;;;18.04;100.00
3096;BME280;1558;42.700;23.360;2023-08-08T04:51:04;95377.34;;;18.09;100.00
3096;BME280;1558;42.700;23.360;2023-08-08T04:53:34;95385.66;;;18.23;100.00
3096;BME280;1558;42.700;23.360;2023-08-08T04:56:02;95386.38;;;18.17;100.00
3096;BME280;1558;42.700;23.360;2023-08-08T04:58:30;95389.16;;;18.20;100.00
3096;BME280;1558;42.700;23.360;2023-08-08T05:00:58;95402.69;;;18.06;100.00
3096;BME280;1558;42.700;23.360;2023-08-08T05:03:27;95395.91;;;17.93;100.00
3096;BME280;1558;42.700;23.360;2023-08-08T05:05:55;95392.75;;;17.88;100.00
3096;BME280;1558;42.700;23.360;2023-08-08T05:08:26;95408.72;;;17.86;100.00
3096;BME280;1558;42.700;23.360;2023-08-08T05:10:56;95418.34;;;18.13;100.00
3096;BME280;1558;42.700;23.360;2023-08-08T05:13:24;95430.31;;;18.42;100.00
3096;BME280;1558;42.700;23.360;2023-08-08T05:15:52;95438.91;;;18.44;100.00
3096;BME280;1558;42.700;23.360;2023-08-08T05:18:20;95436.63;;;19.04;100.00
3096;BME280;1558;42.700;23.360;2023-08-08T05:20:48;95446.06;;;19.13;100.00
3096;BME280;1558;42.700;23.360;2023-08-08T05:23:16;95438.66;;;20.17;100.00
3096;BME280;1558;42.700;23.360;2023-08-08T05:25:45;95433.22;;;20.70;100.00
3096;BME280;1558;42.700;23.360;2023-08-08T05:28:14;95428.50;;;20.71;100.00
3096;BME280;1558;42.700;23.360;2023-08-08T05:30:42;95428.09;;;20.19;100.00
3096;BME280;1558;42.700;23.360;2023-08-08T05:33:10;95448.28;;;19.58;100.00
3096;BME280;1558;42.700;23.360;2023-08-08T05:35:39;95439.69;;;19.71;100.00
3096;BME280;1558;42.700;23.360;2023-08-08T05:38:07;95449.28;;;20.68;100.00
3096;BME280;1558;42.700;23.360;2023-08-08T05:40:35;95449.81;;;21.78;96.69
3096;BME280;1558;42.700;23.360;2023-08-08T05:43:04;95444.13;;;22.24;87.04
3096;BME280;1558;42.700;23.360;2023-08-08T05:45:33;95457.34;;;22.43;81.08
3096;BME280;1558;42.700;23.360;2023-08-08T05:48:01;95459.31;;;22.43;77.23
3096;BME280;1558;42.700;23.360;2023-08-08T05:50:30;95475.28;;;21.96;77.60
3096;BME280;1558;42.700;23.360;2023-08-08T05:52:58;95479.44;;;21.07;81.01
3096;BME280;1558;42.700;23.360;2023-08-08T05:55:26;95458.69;;;20.53;81.45
3096;BME280;1558;42.700;23.360;2023-08-08T05:57:54;95482.94;;;21.39;78.59
3096;BME280;1558;42.700;23.360;2023-08-08T06:00:22;95470.16;;;22.02;76.02
3096;BME280;1558;42.700;23.360;2023-08-08T06:02:51;95473.72;;;22.61;76.81
3096;BME280;1558;42.700;23.360;2023-08-08T06:05:21;95488.44;;;22.92;74.75
3096;BME280;1558;42.700;23.360;2023-08-08T06:07:50;95489.13;;;23.03;72.31
3096;BME280;1558;42.700;23.360;2023-08-08T06:10:23;95487.94;;;21.69;75.33
3096;BME280;1558;42.700;23.360;2023-08-08T06:12:52;95488.06;;;21.09;78.67
3096;BME280;1558;42.700;23.360;2023-08-08T06:15:20;95479.44;;;20.79;80.85
3096;BME280;1558;42.700;23.360;2023-08-08T06:17:48;95474.94;;;21.80;79.45
3096;BME280;1558;42.700;23.360;2023-08-08T06:20:17;95479.72;;;21.62;75.68
3096;BME280;1558;42.700;23.360;2023-08-08T06:22:46;95468.38;;;21.49;77.85
3096;BME280;1558;42.700;23.360;2023-08-08T06:25:15;95486.50;;;22.27;73.91
3096;BME280;1558;42.700;23.360;2023-08-08T06:27:43;95483.63;;;23.03;71.93
3096;BME280;1558;42.700;23.360;2023-08-08T06:30:14;95478.41;;;23.15;69.13
3096;BME280;1558;42.700;23.360;2023-08-08T06:32:42;95489.34;;;23.63;68.13
3096;BME280;1558;42.700;23.360;2023-08-08T06:35:10;95484.41;;;23.03;64.43
3096;BME280;1558;42.700;23.360;2023-08-08T06:37:40;95487.72;;;22.84;67.88
3096;BME280;1558;42.700;23.360;2023-08-08T06:40:09;95491.41;;;23.11;66.56
3096;BME280;1558;42.700;23.360;2023-08-08T06:42:38;95487.44;;;23.16;66.56
3096;BME280;1558;42.700;23.360;2023-08-08T06:45:07;95489.25;;;23.36;66.82
3096;BME280;1558;42.700;23.360;2023-08-08T06:47:36;95486.03;;;23.75;62.96
3096;BME280;1558;42.700;23.360;2023-08-08T06:50:06;95487.09;;;23.88;65.68
3096;BME280;1558;42.700;23.360;2023-08-08T06:52:34;95476.19;;;23.78;63.18
3096;BME280;1558;42.700;23.360;2023-08-08T06:55:04;95457.88;;;22.20;66.33
3096;BME280;1558;42.700;23.360;2023-08-08T06:57:33;95485.72;;;20.79;69.54
3096;BME280;1558;42.700;23.360;2023-08-08T07:00:02;95491.94;;;20.27;72.18
3096;BME280;1558;42.700;23.360;2023-08-08T07:02:32;95496.25;;;20.56;70.07
3096;BME280;1558;42.700;23.360;2023-08-08T07:05:00;95498.47;;;20.05;70.88
3096;BME280;1558;42.700;23.360;2023-08-08T07:07:30;95495.50;;;20.66;72.79
3096;BME280;1558;42.700;23.360;2023-08-08T07:10:00;95480.53;;;21.45;68.47
3096;BME280;1558;42.700;23.360;2023-08-08T07:12:30;95487.72;;;22.22;65.90
3096;BME280;1558;42.700;23.360;2023-08-08T07:14:58;95492.34;;;21.21;66.21
3096;BME280;1558;42.700;23.360;2023-08-08T07:17:26;95492.34;;;20.92;66.58
3096;BME280;1558;42.700;23.360;2023-08-08T07:19:54;95484.88;;;21.35;66.74
3096;BME280;1558;42.700;23.360;2023-08-08T07:22:23;95484.97;;;22.80;61.92
3096;BME280;1558;42.700;23.360;2023-08-08T07:24:51;95490.81;;;24.05;60.12
3096;BME280;1558;42.700;23.360;2023-08-08T07:27:19;95503.94;;;23.16;57.07
3096;BME280;1558;42.700;23.360;2023-08-08T07:29:50;95495.38;;;23.10;58.32
3096;BME280;1558;42.700;23.360;2023-08-08T07:32:18;95493.75;;;23.91;56.85
3096;BME280;1558;42.700;23.360;2023-08-08T07:34:46;95495.53;;;24.08;54.40
3096;BME280;1558;42.700;23.360;2023-08-08T07:37:14;95491.94;;;24.11;53.80
3096;BME280;1558;42.700;23.360;2023-08-08T07:39:42;95492.47;;;23.24;55.37
3096;BME280;1558;42.700;23.360;2023-08-08T07:42:11;95502.91;;;22.99;55.18
3096;BME280;1558;42.700;23.360;2023-08-08T07:44:39;95517.16;;;23.76;54.14
3096;BME280;1558;42.700;23.360;2023-08-08T07:47:08;95495.25;;;24.56;54.36
3096;BME280;1558;42.700;23.360;2023-08-08T07:49:39;95504.78;;;23.91;52.99
3096;BME280;1558;42.700;23.360;2023-08-08T07:52:07;95506.16;;;22.87;54.74
3096;BME280;1558;42.700;23.360;2023-08-08T07:54:35;95496.63;;;23.80;53.82
3096;BME280;1558;42.700;23.360;2023-08-08T07:57:04;95511.28;;;24.38;52.58
3096;BME280;1558;42.700;23.360;2023-08-08T07:59:32;95490.47;;;24.86;51.30
3096;BME280;1558;42.700;23.360;2023-08-08T08:02:00;95495.53;;;25.61;49.68
3096;BME280;1558;42.700;23.360;2023-08-08T08:04:30;95492.56;;;25.91;49.54
3096;BME280;1558;42.700;23.360;2023-08-08T08:06:58;95414.81;;;24.34;50.58
3096;BME280;1558;42.700;23.360;2023-08-08T08:09:26;95497.25;;;24.25;51.88
3096;BME280;1558;42.700;23.360;2023-08-08T08:11:54;95490.84;;;25.35;49.78
3096;BME280;1558;42.700;23.360;2023-08-08T08:14:22;95483.03;;;24.57;49.59
3096;BME280;1558;42.700;23.360;2023-08-08T08:16:51;95488.72;;;24.16;50.45
3096;BME280;1558;42.700;23.360;2023-08-08T08:19:19;95477.31;;;23.46;50.88
3096;BME280;1558;42.700;23.360;2023-08-08T08:21:49;95486.84;;;24.09;50.61
3096;BME280;1558;42.700;23.360;2023-08-08T08:24:17;95477.56;;;23.63;52.00
3096;BME280;1558;42.700;23.360;2023-08-08T08:26:45;95491.00;;;23.13;52.53
3096;BME280;1558;42.700;23.360;2023-08-08T08:29:13;95497.69;;;23.15;53.32
3096;BME280;1558;42.700;23.360;2023-08-08T08:31:41;95498.25;;;23.40;53.19
3096;BME280;1558;42.700;23.360;2023-08-08T08:34:09;95495.75;;;23.87;51.05
3096;BME280;1558;42.700;23.360;2023-08-08T08:36:38;95488.63;;;23.89;50.47
3096;BME280;1558;42.700;23.360;2023-08-08T08:39:07;95495.34;;;23.88;51.58
3096;BME280;1558;42.700;23.360;2023-08-08T08:41:36;95491.13;;;24.14;50.06
3096;BME280;1558;42.700;23.360;2023-08-08T08:44:04;95493.13;;;22.95;52.70
3096;BME280;1558;42.700;23.360;2023-08-08T08:46:34;95438.06;;;23.73;52.06
3096;BME280;1558;42.700;23.360;2023-08-08T08:49:05;95485.09;;;25.26;49.87
3096;BME280;1558;42.700;23.360;2023-08-08T08:51:35;95483.66;;;25.41;48.16
3096;BME280;1558;42.700;23.360;2023-08-08T08:54:22;95476.50;;;25.86;46.29
3096;BME280;1558;42.700;23.360;2023-08-08T08:56:51;95490.47;;;25.56;46.52
3096;BME280;1558;42.700;23.360;2023-08-08T08:59:20;95499.84;;;24.66;47.73
3096;BME280;1558;42.700;23.360;2023-08-08T09:01:48;95454.84;;;25.19;46.86
3096;BME280;1558;42.700;23.360;2023-08-08T09:04:19;95494.06;;;25.76;46.29
3096;BME280;1558;42.700;23.360;2023-08-08T09:06:48;95437.63;;;25.11;45.96
3096;BME280;1558;42.700;23.360;2023-08-08T09:09:16;95498.66;;;25.40;46.53
3096;BME280;1558;42.700;23.360;2023-08-08T09:11:51;95471.88;;;25.99;46.43
3096;BME280;1558;42.700;23.360;2023-08-08T09:14:22;95491.44;;;25.89;45.39
3096;BME280;1558;42.700;23.360;2023-08-08T09:16:51;95473.91;;;26.15;45.12
3096;BME280;1558;42.700;23.360;2023-08-08T09:19:21;95478.34;;;27.00;44.60
3096;BME280;1558;42.700;23.360;2023-08-08T09:21:51;95485.63;;;26.74;43.67
3096;BME280;1558;42.700;23.360;2023-08-08T09:24:19;95486.22;;;26.14;44.93
3096;BME280;1558;42.700;23.360;2023-08-08T09:26:47;95484.03;;;26.41;43.90
3096;BME280;1558;42.700;23.360;2023-08-08T09:29:17;95481.56;;;24.75;45.62
3096;BME280;1558;42.700;23.360;2023-08-08T09:31:46;95492.41;;;24.89;46.76
3096;BME280;1558;42.700;23.360;2023-08-08T09:34:15;95480.97;;;25.14;45.70
3096;BME280;1558;42.700;23.360;2023-08-08T09:36:44;95487.59;;;25.40;45.92
3096;BME280;1558;42.700;23.360;2023-08-08T09:39:12;95494.06;;;26.15;44.32
3096;BME280;1558;42.700;23.360;2023-08-08T09:41:40;95484.25;;;25.52;45.28
3096;BME280;1558;42.700;23.360;2023-08-08T09:44:08;95485.22;;;26.60;44.75
3096;BME280;1558;42.700;23.360;2023-08-08T09:46:39;95450.53;;;26.19;43.07
3096;BME280;1558;42.700;23.360;2023-08-08T09:49:08;95500.47;;;25.50;44.93
3096;BME280;1558;42.700;23.360;2023-08-08T09:51:36;95488.81;;;26.41;43.60
3096;BME280;1558;42.700;23.360;2023-08-08T09:54:05;95485.88;;;26.83;44.02
3096;BME280;1558;42.700;23.360;2023-08-08T09:56:34;95398.22;;;25.89;42.20
3096;BME280;1558;42.700;23.360;2023-08-08T09:59:04;95479.03;;;26.88;42.77
3096;BME280;1558;42.700;23.360;2023-08-08T10:01:33;95491.25;;;26.55;42.34
3096;BME280;1558;42.700;23.360;2023-08-08T10:04:03;95497.81;;;24.43;45.48
3096;BME280;1558;42.700;23.360;2023-08-08T10:06:31;95461.25;;;23.75;47.43
3096;BME280;1558;42.700;23.360;2023-08-08T10:09:00;95490.00;;;24.38;47.60
3096;BME280;1558;42.700;23.360;2023-08-08T10:11:30;95479.06;;;26.52;44.53
3096;BME280;1558;42.700;23.360;2023-08-08T10:14:01;95481.47;;;27.02;41.97
3096;BME280;1558;42.700;23.360;2023-08-08T10:16:32;95478.25;;;26.16;44.16
3096;BME280;1558;42.700;23.360;2023-08-08T10:19:03;95479.22;;;26.81;42.92
3096;BME280;1558;42.700;23.360;2023-08-08T10:21:34;95464.91;;;27.47;41.72
3096;BME280;1558;42.700;23.360;2023-08-08T10:24:03;95489.56;;;27.86;42.05
3096;BME280;1558;42.700;23.360;2023-08-08T10:26:33;95478.03;;;28.29;40.80
3096;BME280;1558;42.700;23.360;2023-08-08T10:29:02;95489.72;;;27.95;40.34
3096;BME280;1558;42.700;23.360;2023-08-08T10:31:33;95474.97;;;26.41;42.13
3096;BME280;1558;42.700;23.360;2023-08-08T10:34:05;95478.59;;;27.38;41.96
3096;BME280;1558;42.700;23.360;2023-08-08T10:36:44;95475.56;;;27.16;41.15
3096;BME280;1558;42.700;23.360;2023-08-08T10:39:15;95475.25;;;27.88;40.90
3096;BME280;1558;42.700;23.360;2023-08-08T10:41:46;95463.91;;;27.53;40.50
3096;BME280;1558;42.700;23.360;2023-08-08T10:44:21;95464.44;;;27.48;41.18
3096;BME280;1558;42.700;23.360;2023-08-08T10:46:51;95454.75;;;27.24;40.33
3096;BME280;1558;42.700;23.360;2023-08-08T10:49:20;95452.34;;;27.10;41.34
3096;BME280;1558;42.700;23.360;2023-08-08T10:51:50;95458.25;;;27.12;41.47
3096;BME280;1558;42.700;23.360;2023-08-08T10:54:20;95454.97;;;27.01;42.01
3096;BME280;1558;42.700;23.360;2023-08-08T10:56:50;95454.19;;;27.62;40.96
3096;BME280;1558;42.700;23.360;2023-08-08T10:59:20;95456.72;;;27.85;40.12
3096;BME280;1558;42.700;23.360;2023-08-08T11:01:51;95464.19;;;27.59;40.21
3096;BME280;1558;42.700;23.360;2023-08-08T11:04:22;95470.06;;;27.61;39.85
3096;BME280;1558;42.700;23.360;2023-08-08T11:06:53;95456.84;;;27.94;40.43
3096;BME280;1558;42.700;23.360;2023-08-08T11:09:21;95422.69;;;27.97;39.02
3096;BME280;1558;42.700;23.360;2023-08-08T11:11:49;95454.63;;;28.55;39.07
3096;BME280;1558;42.700;23.360;2023-08-08T11:14:19;95461.06;;;28.27;39.87
3096;BME280;1558;42.700;23.360;2023-08-08T11:16:49;95425.09;;;28.99;37.81
3096;BME280;1558;42.700;23.360;2023-08-08T11:19:18;95450.97;;;29.09;37.94
3096;BME280;1558;42.700;23.360;2023-08-08T11:21:48;95463.28;;;28.32;39.09
3096;BME280;1558;42.700;23.360;2023-08-08T11:24:16;95456.53;;;28.46;39.68
3096;BME280;1558;42.700;23.360;2023-08-08T11:26:45;95449.63;;;28.25;38.68
3096;BME280;1558;42.700;23.360;2023-08-08T11:29:15;95451.63;;;27.83;39.89
3096;BME280;1558;42.700;23.360;2023-08-08T11:31:43;95448.72;;;27.87;39.98
3096;BME280;1558;42.700;23.360;2023-08-08T11:34:15;95455.81;;;28.04;39.47
3096;BME280;1558;42.700;23.360;2023-08-08T11:36:44;95459.13;;;28.65;40.48
3096;BME280;1558;42.700;23.360;2023-08-08T11:39:14;95437.91;;;29.78;37.51
3096;BME280;1558;42.700;23.360;2023-08-08T11:41:43;95450.31;;;29.86;37.12
3096;BME280;1558;42.700;23.360;2023-08-08T11:44:12;95432.28;;;29.56;37.05
3096;BME280;1558;42.700;23.360;2023-08-08T11:46:44;95445.97;;;29.04;37.82
3096;BME280;1558;42.700;23.360;2023-08-08T11:49:14;95436.19;;;29.12;37.36
3096;BME280;1558;42.700;23.360;2023-08-08T11:51:44;95424.88;;;29.19;37.57
3096;BME280;1558;42.700;23.360;2023-08-08T11:54:13;95442.03;;;29.39;37.38
3096;BME280;1558;42.700;23.360;2023-08-08T11:56:43;95436.28;;;29.08;37.11
3096;BME280;1558;42.700;23.360;2023-08-08T11:59:11;95429.94;;;29.08;36.94
3096;BME280;1558;42.700;23.360;2023-08-08T12:01:41;95424.91;;;29.62;37.38
3096;BME280;1558;42.700;23.360;2023-08-08T12:04:11;95412.59;;;29.50;36.29
3096;BME280;1558;42.700;23.360;2023-08-08T12:06:39;95420.44;;;29.65;36.00
3096;BME280;1558;42.700;23.360;2023-08-08T12:09:11;95419.38;;;29.28;36.51
3096;BME280;1558;42.700;23.360;2023-08-08T12:11:40;95390.19;;;29.45;36.18
3096;BME280;1558;42.700;23.360;2023-08-08T12:14:13;95317.69;;;28.58;37.54
3096;BME280;1558;42.700;23.360;2023-08-08T12:16:42;95418.88;;;28.32;38.68
3096;BME280;1558;42.700;23.360;2023-08-08T12:19:11;95405.72;;;27.95;38.52
3096;BME280;1558;42.700;23.360;2023-08-08T12:21:41;95401.69;;;27.83;38.97
3096;BME280;1558;42.700;23.360;2023-08-08T12:24:09;95399.22;;;28.14;39.64
3096;BME280;1558;42.700;23.360;2023-08-08T12:26:37;95393.13;;;28.44;38.90
3096;BME280;1558;42.700;23.360;2023-08-08T12:29:05;95396.13;;;27.71;38.97
3096;BME280;1558;42.700;23.360;2023-08-08T12:31:35;95353.28;;;27.30;40.09
3096;BME280;1558;42.700;23.360;2023-08-08T12:34:03;95403.28;;;27.56;40.46
3096;BME280;1558;42.700;23.360;2023-08-08T12:36:32;95395.50;;;27.06;40.38
3096;BME280;1558;42.700;23.360;2023-08-08T12:39:00;95393.72;;;26.83;41.31
3096;BME280;1558;42.700;23.360;2023-08-08T12:41:28;95401.72;;;27.10;40.84
3096;BME280;1558;42.700;23.360;2023-08-08T12:43:57;95397.66;;;27.14;40.59
3096;BME280;1558;42.700;23.360;2023-08-08T12:46:25;95386.75;;;26.91;40.16
3096;BME280;1558;42.700;23.360;2023-08-08T12:48:54;95383.28;;;27.03;40.37
3096;BME280;1558;42.700;23.360;2023-08-08T12:51:22;95386.19;;;27.28;40.91
3096;BME280;1558;42.700;23.360;2023-08-08T12:53:50;95387.38;;;27.43;40.47
3096;BME280;1558;42.700;23.360;2023-08-08T12:56:18;95382.38;;;27.80;39.98
3096;BME280;1558;42.700;23.360;2023-08-08T12:58:47;95393.41;;;27.55;40.07
3096;BME280;1558;42.700;23.360;2023-08-08T13:01:16;95390.28;;;27.08;40.59
3096;BME280;1558;42.700;23.360;2023-08-08T13:03:44;95373.34;;;27.34;40.52
3096;BME280;1558;42.700;23.360;2023-08-08T13:06:22;95371.19;;;26.65;41.14
3096;BME280;1558;42.700;23.360;2023-08-08T13:08:51;95374.13;;;26.26;41.72
3096;BME280;1558;42.700;23.360;2023-08-08T13:11:19;95388.50;;;26.69;41.09
3096;BME280;1558;42.700;23.360;2023-08-08T13:13:47;95372.75;;;26.66;41.20
3096;BME280;1558;42.700;23.360;2023-08-08T13:16:15;95374.50;;;26.60;41.20